createdAt,value
2017-09-01T00:00:01.635Z,23.20
2017-09-01T00:02:30.068Z,26.57
2017-09-01T00:04:58.457Z,26.17
2017-09-01T00:07:26.851Z,25.50
2017-09-01T00:09:55.185Z,26.47
2017-09-01T00:12:23.637Z,26.67
2017-09-01T00:14:52.018Z,26.63
2017-09-01T00:17:20.367Z,25.87
2017-09-01T00:19:48.706Z,24.70
2017-09-01T00:22:17.073Z,25.90
2017-09-01T00:24:45.496Z,27.37
2017-09-01T00:27:13.878Z,26.63
2017-09-01T00:29:42.271Z,27.57
2017-09-01T00:32:10.658Z,26.07
2017-09-01T00:34:39.031Z,28.90
2017-09-01T00:37:07.403Z,33.67
2017-09-01T00:39:35.759Z,28.17
2017-09-01T00:42:04.156Z,26.63
2017-09-01T00:44:32.482Z,26.80
2017-09-01T00:47:00.832Z,28.83
2017-09-01T00:49:29.207Z,27.57
2017-09-01T00:51:57.586Z,28.87
2017-09-01T00:54:25.974Z,37.30
2017-09-01T00:56:54.310Z,31.27
2017-09-01T00:59:22.654Z,29.70
2017-09-01T01:01:51.079Z,29.30
2017-09-01T01:04:19.537Z,30.70
2017-09-01T01:06:47.936Z,30.17
2017-09-01T01:09:16.332Z,29.20
2017-09-01T01:11:44.666Z,28.20
2017-09-01T01:14:13.015Z,29.60
2017-09-01T01:16:41.494Z,29.17
2017-09-01T01:19:09.834Z,27.70
2017-09-01T01:21:38.170Z,28.07
2017-09-01T01:24:06.514Z,28.07
2017-09-01T01:26:34.967Z,28.07
2017-09-01T01:29:03.355Z,29.90
2017-09-01T01:31:31.751Z,26.30
2017-09-01T01:34:00.146Z,26.63
2017-09-01T01:36:28.485Z,28.00
2017-09-01T01:38:56.830Z,26.23
2017-09-01T01:41:25.310Z,25.70
2017-09-01T01:43:53.698Z,27.40
2017-09-01T01:46:22.095Z,29.13
2017-09-01T01:48:50.435Z,27.53
2017-09-01T01:51:18.882Z,27.10
2017-09-01T01:53:47.251Z,24.57
2017-09-01T01:56:15.670Z,26.70
2017-09-01T01:58:44.027Z,28.97
2017-09-01T02:01:12.376Z,30.13
2017-09-01T02:03:40.841Z,25.60
2017-09-01T02:06:09.235Z,23.77
2017-09-01T02:08:37.643Z,23.77
2017-09-01T02:11:06.035Z,21.87
2017-09-01T02:13:34.396Z,23.00
2017-09-01T02:16:02.736Z,23.50
2017-09-01T02:18:31.177Z,24.90
2017-09-01T02:20:59.548Z,26.00
2017-09-01T02:23:27.928Z,31.73
2017-09-01T02:25:56.355Z,28.43
2017-09-01T02:28:24.718Z,23.70
2017-09-01T02:30:53.067Z,24.87
2017-09-01T02:33:21.422Z,26.20
2017-09-01T02:35:50.165Z,26.40
2017-09-01T02:38:18.673Z,26.73
2017-09-01T02:40:47.127Z,24.50
2017-09-01T02:43:15.507Z,24.33
2017-09-01T02:45:43.890Z,26.37
2017-09-01T02:48:12.290Z,24.73
2017-09-01T02:50:40.680Z,23.30
2017-09-01T02:53:09.055Z,24.20
2017-09-01T02:55:37.392Z,23.83
2017-09-01T02:58:05.770Z,25.60
2017-09-01T03:00:34.158Z,25.40
2017-09-01T03:03:02.494Z,25.37
2017-09-01T03:05:30.922Z,25.10
2017-09-01T03:07:59.310Z,26.80
2017-09-01T03:10:27.659Z,27.50
2017-09-01T03:12:56.089Z,26.73
2017-09-01T03:15:24.522Z,22.57
2017-09-01T03:17:52.889Z,21.73
2017-09-01T03:20:21.271Z,22.47
2017-09-01T03:22:49.662Z,22.00
2017-09-01T03:25:18.049Z,22.40
2017-09-01T03:27:46.394Z,20.00
2017-09-01T03:30:14.830Z,19.77
2017-09-01T03:32:43.185Z,22.17
2017-09-01T03:35:11.523Z,19.97
2017-09-01T03:37:39.930Z,20.40
2017-09-01T03:40:08.294Z,21.90
2017-09-01T03:42:36.638Z,21.93
2017-09-01T03:45:04.983Z,20.10
2017-09-01T03:47:33.379Z,20.33
2017-09-01T03:50:01.766Z,19.30
2017-09-01T03:52:30.126Z,19.43
2017-09-01T03:54:58.462Z,22.17
2017-09-01T03:57:26.830Z,21.57
2017-09-01T03:59:55.170Z,18.70
2017-09-01T04:02:23.614Z,18.50
2017-09-01T04:04:52.006Z,19.47
2017-09-01T04:07:20.378Z,17.77
2017-09-01T04:09:48.789Z,19.13
2017-09-01T04:12:17.162Z,22.80
2017-09-01T04:14:45.531Z,18.90
2017-09-01T04:17:13.898Z,17.07
2017-09-01T04:19:42.234Z,16.33
2017-09-01T04:22:10.751Z,16.90
2017-09-01T04:24:39.139Z,16.83
2017-09-01T04:27:07.525Z,15.80
2017-09-01T04:29:35.860Z,16.67
2017-09-01T04:32:04.197Z,14.80
2017-09-01T04:34:32.547Z,15.67
2017-09-01T04:37:00.986Z,16.30
2017-09-01T04:39:29.365Z,16.10
2017-09-01T04:41:57.715Z,14.53
2017-09-01T04:44:26.076Z,14.50
2017-09-01T04:46:54.414Z,14.40
2017-09-01T04:49:22.853Z,16.50
2017-09-01T04:51:51.182Z,16.80
2017-09-01T04:54:19.626Z,14.80
2017-09-01T04:56:48.014Z,14.10
2017-09-01T04:59:16.415Z,14.03
2017-09-01T05:01:44.787Z,14.60
2017-09-01T05:04:13.154Z,14.97
2017-09-01T05:06:41.616Z,14.80
2017-09-01T05:09:09.948Z,15.63
2017-09-01T05:11:38.298Z,13.13
2017-09-01T05:14:06.726Z,12.03
2017-09-01T05:16:35.250Z,13.43
2017-09-01T05:19:03.642Z,12.70
2017-09-01T05:21:32.042Z,12.10
2017-09-01T05:24:00.423Z,12.37
2017-09-01T05:26:28.806Z,12.67
2017-09-01T05:28:57.220Z,12.33
2017-09-01T05:31:25.621Z,12.23
2017-09-01T05:33:54.024Z,11.13
2017-09-01T05:36:22.382Z,10.10
2017-09-01T05:38:50.727Z,10.20
2017-09-01T05:41:19.196Z,10.90
2017-09-01T05:43:47.659Z,10.60
2017-09-01T05:46:16.042Z,11.10
2017-09-01T05:48:44.375Z,9.93
2017-09-01T05:51:12.759Z,9.90
2017-09-01T05:53:41.222Z,10.90
2017-09-01T05:56:09.562Z,12.57
2017-09-01T05:58:37.907Z,10.50
2017-09-01T06:01:06.247Z,9.43
2017-09-01T06:03:34.682Z,9.20
2017-09-01T06:06:03.022Z,10.83
2017-09-01T06:08:31.363Z,9.17
2017-09-01T06:10:59.702Z,9.90
2017-09-01T06:13:28.076Z,11.40
2017-09-01T06:15:56.410Z,10.67
2017-09-01T06:18:25.243Z,11.20
2017-09-01T06:20:53.580Z,8.63
2017-09-01T06:23:21.947Z,7.70
2017-09-01T06:25:50.282Z,6.87
2017-09-01T06:28:18.627Z,7.57
2017-09-01T06:30:46.985Z,6.73
2017-09-01T06:33:15.382Z,5.93
2017-09-01T06:35:43.766Z,5.30
2017-09-01T06:38:12.097Z,5.70
2017-09-01T06:40:40.455Z,6.03
2017-09-01T06:43:08.817Z,6.13
2017-09-01T06:45:37.232Z,5.90
2017-09-01T06:48:05.635Z,6.40
2017-09-01T06:50:34.007Z,6.50
2017-09-01T06:53:02.401Z,5.93
2017-09-01T06:55:30.745Z,6.57
2017-09-01T06:57:59.119Z,10.30
2017-09-01T07:00:27.478Z,7.63
2017-09-01T07:02:55.869Z,7.93
2017-09-01T07:05:24.233Z,7.03
2017-09-01T07:07:52.646Z,6.40
2017-09-01T07:10:21.001Z,5.80
2017-09-01T07:12:49.439Z,5.30
2017-09-01T07:15:17.797Z,6.00
2017-09-01T07:17:46.135Z,6.90
2017-09-01T07:20:14.641Z,5.80
2017-09-01T07:22:43.004Z,6.40
2017-09-01T07:25:11.339Z,5.57
2017-09-01T07:27:39.781Z,5.50
2017-09-01T07:30:08.114Z,5.83
2017-09-01T07:32:36.458Z,5.70
2017-09-01T07:35:04.823Z,5.27
2017-09-01T07:37:33.168Z,5.43
2017-09-01T07:40:01.531Z,5.80
2017-09-01T07:42:29.861Z,5.10
2017-09-01T07:44:58.222Z,4.10
2017-09-01T07:47:26.557Z,4.90
2017-09-01T07:49:54.899Z,4.10
2017-09-01T07:52:23.253Z,4.57
2017-09-01T07:54:51.586Z,4.17
2017-09-01T07:57:19.961Z,4.70
2017-09-01T07:59:48.359Z,3.93
2017-09-01T08:02:16.694Z,4.50
2017-09-01T08:04:45.031Z,3.80
2017-09-01T08:07:13.442Z,4.13
2017-09-01T08:09:41.825Z,3.80
2017-09-01T08:12:10.215Z,4.50
2017-09-01T08:14:38.541Z,3.47
2017-09-01T08:17:06.923Z,3.07
2017-09-01T08:19:35.307Z,4.13
2017-09-01T08:22:03.639Z,2.83
2017-09-01T08:24:31.997Z,3.40
2017-09-01T08:27:00.324Z,2.87
2017-09-01T08:29:28.661Z,2.33
2017-09-01T08:31:56.995Z,2.47
2017-09-01T08:34:25.431Z,2.10
2017-09-01T08:36:53.761Z,2.70
2017-09-01T08:39:22.117Z,2.40
2017-09-01T08:41:50.455Z,2.37
2017-09-01T08:44:18.889Z,2.90
2017-09-01T08:46:47.283Z,2.77
2017-09-01T08:49:15.612Z,2.70
2017-09-01T08:51:44.067Z,2.47
2017-09-01T08:54:12.675Z,2.23
2017-09-01T08:56:41.155Z,2.63
2017-09-01T08:59:09.502Z,2.90
2017-09-01T09:01:37.937Z,2.80
2017-09-01T09:04:06.332Z,3.30
2017-09-01T09:06:34.722Z,3.33
2017-09-01T09:09:03.058Z,3.90
2017-09-01T09:11:31.427Z,4.93
2017-09-01T09:13:59.765Z,4.57
2017-09-01T09:16:28.190Z,5.10
2017-09-01T09:18:56.576Z,4.60
2017-09-01T09:21:24.919Z,4.50
2017-09-01T09:23:53.278Z,4.80
2017-09-01T09:26:21.635Z,4.47
2017-09-01T09:28:50.141Z,5.40
2017-09-01T09:31:18.482Z,4.70
2017-09-01T09:33:46.815Z,4.37
2017-09-01T09:36:15.242Z,4.37
2017-09-01T09:38:43.633Z,6.03
2017-09-01T09:41:12.007Z,5.10
2017-09-01T09:43:40.382Z,4.27
2017-09-01T09:46:08.745Z,5.50
2017-09-01T09:48:37.082Z,10.20
2017-09-01T09:51:05.425Z,4.90
2017-09-01T09:53:33.777Z,4.40
2017-09-01T09:56:02.363Z,3.90
2017-09-01T09:58:30.735Z,4.17
2017-09-01T10:00:59.082Z,4.60
2017-09-01T10:03:27.414Z,3.60
2017-09-01T10:05:55.754Z,3.50
2017-09-01T10:08:24.099Z,6.53
2017-09-01T10:10:52.475Z,5.63
2017-09-01T10:13:20.813Z,4.00
2017-09-01T10:15:49.176Z,3.90
2017-09-01T10:18:17.544Z,4.43
2017-09-01T10:20:45.907Z,3.23
2017-09-01T10:23:14.260Z,4.07
2017-09-01T10:25:42.577Z,3.30
2017-09-01T10:28:10.943Z,4.40
2017-09-01T10:30:39.282Z,4.93
2017-09-01T10:33:07.614Z,3.97
2017-09-01T10:35:35.970Z,4.43
2017-09-01T10:38:04.299Z,4.33
2017-09-01T10:40:32.662Z,4.07
2017-09-01T10:43:01.398Z,5.03
2017-09-01T10:45:29.758Z,4.43
2017-09-01T10:48:09.886Z,4.73
2017-09-01T10:50:49.759Z,4.33
2017-09-01T10:53:29.707Z,4.20
2017-09-01T10:56:09.640Z,4.17
2017-09-01T10:58:38.006Z,4.20
2017-09-01T11:01:06.339Z,4.40
2017-09-01T11:03:34.711Z,4.47
2017-09-01T11:06:03.074Z,4.20
2017-09-01T11:08:31.440Z,5.73
2017-09-01T11:10:59.779Z,5.20
2017-09-01T11:13:28.155Z,4.47
2017-09-01T11:15:56.490Z,4.90
2017-09-01T11:18:24.843Z,4.10
2017-09-01T11:21:07.422Z,4.30
2017-09-01T11:23:41.236Z,4.77
2017-09-01T11:26:09.565Z,5.20
2017-09-01T11:28:37.899Z,4.97
2017-09-01T11:31:06.274Z,3.90
2017-09-01T11:33:34.603Z,5.17
2017-09-01T11:36:02.935Z,5.33
2017-09-01T11:38:31.278Z,5.70
2017-09-01T11:40:59.615Z,5.13
2017-09-01T11:43:28.375Z,4.87
2017-09-01T11:45:56.706Z,4.37
2017-09-01T11:48:25.029Z,5.13
2017-09-01T11:50:53.382Z,4.23
2017-09-01T11:53:21.768Z,5.97
2017-09-01T11:55:50.098Z,5.80
2017-09-01T11:58:18.439Z,4.40
2017-09-01T12:00:46.774Z,5.10
2017-09-01T12:03:15.101Z,5.70
2017-09-01T12:05:43.458Z,5.87
2017-09-01T12:08:11.786Z,5.80
2017-09-01T12:10:40.118Z,5.30
2017-09-01T12:13:08.458Z,5.90
2017-09-01T12:15:37.083Z,5.93
2017-09-01T12:18:05.414Z,6.20
2017-09-01T12:20:33.780Z,6.00
2017-09-01T12:23:02.123Z,5.30
2017-09-01T12:25:30.462Z,6.20
2017-09-01T12:27:58.834Z,6.53
2017-09-01T12:30:27.174Z,6.00
2017-09-01T12:32:55.565Z,6.77
2017-09-01T12:35:23.910Z,6.37
2017-09-01T12:37:52.259Z,6.00
2017-09-01T12:40:20.598Z,6.27
2017-09-01T12:42:48.936Z,6.80
2017-09-01T12:45:17.278Z,6.10
2017-09-01T12:47:45.640Z,5.50
2017-09-01T12:50:14.005Z,6.73
2017-09-01T12:52:42.334Z,6.70
2017-09-01T12:55:10.670Z,6.47
2017-09-01T12:57:39.034Z,6.47
2017-09-01T13:00:07.376Z,6.33
2017-09-01T13:02:35.738Z,6.30
2017-09-01T13:05:04.075Z,6.00
2017-09-01T13:07:32.407Z,5.10
2017-09-01T13:10:00.766Z,6.13
2017-09-01T13:12:29.102Z,5.50
2017-09-01T13:14:57.445Z,7.00
2017-09-01T13:17:25.810Z,6.00
2017-09-01T13:19:54.142Z,7.27
2017-09-01T13:22:22.518Z,7.73
2017-09-01T13:24:50.864Z,8.63
2017-09-01T13:27:19.198Z,8.20
2017-09-01T13:29:47.564Z,8.80
2017-09-01T13:32:15.914Z,7.73
2017-09-01T13:34:44.238Z,7.70
2017-09-01T13:37:12.583Z,7.47
2017-09-01T13:39:40.951Z,7.00
2017-09-01T13:42:09.284Z,8.30
2017-09-01T13:44:37.617Z,7.80
2017-09-01T13:47:05.963Z,7.73
2017-09-01T13:49:34.294Z,7.50
2017-09-01T13:52:02.678Z,7.73
2017-09-01T13:54:31.006Z,7.50
2017-09-01T13:56:59.375Z,7.17
2017-09-01T13:59:27.714Z,7.77
2017-09-01T14:01:56.047Z,7.43
2017-09-01T14:04:24.407Z,6.70
2017-09-01T14:06:52.762Z,7.50
2017-09-01T14:09:21.119Z,6.70
2017-09-01T14:11:49.463Z,6.37
2017-09-01T14:14:17.787Z,6.87
2017-09-01T14:16:46.118Z,5.83
2017-09-01T14:19:14.462Z,5.40
2017-09-01T14:21:42.831Z,7.30
2017-09-01T14:24:11.175Z,6.40
2017-09-01T14:26:39.502Z,7.20
2017-09-01T14:29:07.838Z,6.77
2017-09-01T14:31:36.915Z,6.10
2017-09-01T14:34:05.246Z,7.27
2017-09-01T14:36:33.586Z,7.50
2017-09-01T14:39:02.050Z,6.43
2017-09-01T14:41:30.387Z,6.80
2017-09-01T14:43:58.732Z,8.30
2017-09-01T14:46:27.062Z,8.37
2017-09-01T14:48:55.456Z,8.63
2017-09-01T14:51:23.795Z,7.00
2017-09-01T14:53:52.128Z,7.80
2017-09-01T14:56:20.508Z,8.47
2017-09-01T14:58:48.847Z,7.93
2017-09-01T15:01:17.514Z,8.23
2017-09-01T15:03:45.855Z,7.53
2017-09-01T15:06:14.217Z,7.00
2017-09-01T15:08:42.567Z,8.03
2017-09-01T15:11:10.998Z,7.97
2017-09-01T15:13:39.366Z,10.47
2017-09-01T15:16:07.708Z,7.50
2017-09-01T15:18:36.046Z,7.87
2017-09-01T15:21:04.383Z,7.17
2017-09-01T15:23:32.725Z,7.03
2017-09-01T15:26:01.082Z,7.47
2017-09-01T15:28:29.428Z,8.10
2017-09-01T15:30:57.790Z,8.10
2017-09-01T15:33:26.123Z,7.97
2017-09-01T15:35:54.457Z,6.53
2017-09-01T15:38:22.822Z,7.20
2017-09-01T15:40:51.158Z,7.33
2017-09-01T15:43:19.499Z,7.83
2017-09-01T15:45:47.832Z,7.80
2017-09-01T15:48:16.162Z,7.60
2017-09-01T15:50:44.534Z,8.37
2017-09-01T15:53:12.867Z,8.90
2017-09-01T15:55:41.235Z,8.70
2017-09-01T15:58:09.575Z,8.60
2017-09-01T16:00:37.905Z,6.90
2017-09-01T16:03:06.239Z,7.50
2017-09-01T16:05:34.586Z,6.90
2017-09-01T16:08:03.058Z,6.80
2017-09-01T16:10:31.407Z,7.27
2017-09-01T16:12:59.751Z,7.60
2017-09-01T16:15:28.092Z,6.57
2017-09-01T16:17:56.427Z,7.07
2017-09-01T16:20:24.765Z,6.30
2017-09-01T16:22:53.118Z,6.03
2017-09-01T16:25:21.455Z,6.47
2017-09-01T16:27:49.799Z,6.80
2017-09-01T16:30:18.138Z,6.47
2017-09-01T16:32:46.528Z,6.60
2017-09-01T16:35:14.858Z,7.20
2017-09-01T16:37:43.204Z,7.33
2017-09-01T16:40:11.542Z,6.83
2017-09-01T16:42:39.878Z,6.73
2017-09-01T16:45:08.219Z,7.40
2017-09-01T16:47:36.554Z,7.80
2017-09-01T16:50:04.923Z,7.70
2017-09-01T16:52:33.258Z,7.63
2017-09-01T16:55:01.590Z,8.20
2017-09-01T16:57:29.934Z,7.57
2017-09-01T16:59:58.294Z,8.47
2017-09-01T17:02:26.683Z,8.27
2017-09-01T17:04:55.014Z,8.40
2017-09-01T17:07:23.355Z,9.73
2017-09-01T17:09:51.699Z,8.87
2017-09-01T17:12:20.058Z,9.10
2017-09-01T17:14:48.430Z,8.80
2017-09-01T17:17:16.773Z,8.63
2017-09-01T17:19:45.138Z,8.93
2017-09-01T17:22:13.485Z,8.87
2017-09-01T17:24:41.883Z,8.83
2017-09-01T17:27:10.245Z,7.83
2017-09-01T17:29:38.615Z,8.20
2017-09-01T17:32:06.953Z,8.90
2017-09-01T17:34:35.289Z,9.63
2017-09-01T17:37:03.635Z,11.73
2017-09-01T17:39:31.981Z,11.83
2017-09-01T17:42:00.320Z,11.50
2017-09-01T17:44:28.666Z,12.30
2017-09-01T17:46:57.003Z,12.10
2017-09-01T17:49:25.387Z,12.10
2017-09-01T17:51:53.726Z,12.03
2017-09-01T17:54:22.089Z,10.93
2017-09-01T17:56:50.480Z,11.13
2017-09-01T17:59:18.862Z,11.20
2017-09-01T18:01:47.206Z,11.50
2017-09-01T18:04:15.637Z,11.50
2017-09-01T18:06:44.002Z,9.40
2017-09-01T18:09:12.430Z,10.23
2017-09-01T18:11:40.822Z,9.83
2017-09-01T18:14:09.215Z,9.53
2017-09-01T18:16:37.555Z,10.03
2017-09-01T18:19:06.005Z,10.53
2017-09-01T18:21:34.383Z,10.40
2017-09-01T18:24:02.729Z,10.20
2017-09-01T18:26:31.132Z,9.97
2017-09-01T18:28:59.553Z,9.70
2017-09-01T18:31:27.917Z,11.37
2017-09-01T18:33:56.259Z,9.90
2017-09-01T18:36:24.635Z,12.03
2017-09-01T18:38:52.969Z,10.13
2017-09-01T18:41:21.315Z,10.00
2017-09-01T18:43:49.687Z,10.73
2017-09-01T18:46:18.038Z,10.70
2017-09-01T18:48:46.387Z,10.80
2017-09-01T18:51:14.779Z,10.73
2017-09-01T18:53:43.116Z,8.87
2017-09-01T18:56:11.576Z,8.87
2017-09-01T18:58:39.902Z,8.83
2017-09-01T19:01:08.575Z,9.00
2017-09-01T19:03:36.906Z,10.20
2017-09-01T19:06:05.246Z,8.90
2017-09-01T19:08:33.619Z,8.53
2017-09-01T19:11:01.979Z,9.20
2017-09-01T19:13:30.390Z,9.10
2017-09-01T19:15:58.731Z,8.83
2017-09-01T19:18:27.106Z,9.13
2017-09-01T19:20:55.474Z,8.97
2017-09-01T19:23:23.850Z,9.13
2017-09-01T19:25:53.347Z,8.93
2017-09-01T19:28:21.762Z,8.47
2017-09-01T19:30:50.193Z,9.93
2017-09-01T19:33:18.526Z,9.83
2017-09-01T19:35:46.874Z,10.37
2017-09-01T19:38:15.333Z,9.97
2017-09-01T19:40:43.674Z,9.50
2017-09-01T19:43:12.109Z,9.30
2017-09-01T19:45:40.451Z,9.10
2017-09-01T19:48:08.795Z,8.63
2017-09-01T19:50:37.322Z,10.03
2017-09-01T19:53:05.720Z,10.77
2017-09-01T19:55:34.054Z,9.90
2017-09-01T19:58:02.394Z,9.17
2017-09-01T20:00:30.754Z,9.97
2017-09-01T20:02:59.174Z,9.20
2017-09-01T20:05:27.536Z,10.07
2017-09-01T20:07:56.249Z,9.27
2017-09-01T20:10:24.726Z,9.20
2017-09-01T20:12:53.075Z,8.60
2017-09-01T20:15:21.452Z,8.57
2017-09-01T20:17:49.830Z,9.30
2017-09-01T20:20:18.222Z,10.47
2017-09-01T20:22:46.598Z,9.67
2017-09-01T20:25:17.972Z,9.80
2017-09-01T20:27:49.275Z,10.27
2017-09-01T20:30:20.388Z,10.00
2017-09-01T20:32:52.023Z,9.63
2017-09-01T20:35:22.466Z,10.30
2017-09-01T20:37:56.706Z,10.47
2017-09-01T20:40:28.618Z,10.70
2017-09-01T20:43:08.871Z,10.03
2017-09-01T20:45:42.662Z,9.33
2017-09-01T20:48:15.997Z,9.73
2017-09-01T20:50:46.928Z,9.60
2017-09-01T20:53:19.129Z,9.40
2017-09-01T20:55:51.004Z,9.47
2017-09-01T20:58:21.241Z,11.17
2017-09-01T21:00:53.385Z,9.53
2017-09-01T21:03:26.803Z,9.63
2017-09-01T21:05:58.945Z,10.53
2017-09-01T21:08:31.630Z,10.53
2017-09-01T21:11:09.048Z,10.67
2017-09-01T21:13:46.556Z,11.30
2017-09-01T21:16:17.883Z,11.90
2017-09-01T21:18:50.273Z,10.10
2017-09-01T21:21:22.535Z,9.90
2017-09-01T21:23:55.709Z,11.13
2017-09-01T21:26:31.681Z,10.60
2017-09-01T21:29:00.946Z,10.50
2017-09-01T21:31:29.387Z,11.10
2017-09-01T21:33:59.219Z,11.17
2017-09-01T21:36:28.720Z,11.70
2017-09-01T21:38:59.868Z,12.03
2017-09-01T21:41:31.483Z,12.60
2017-09-01T21:44:00.915Z,12.37
2017-09-01T21:46:29.294Z,11.80
2017-09-01T21:48:58.966Z,12.67
2017-09-01T21:51:27.669Z,11.80
2017-09-01T21:53:56.010Z,13.67
2017-09-01T21:56:24.491Z,14.77
2017-09-01T21:58:53.666Z,18.90
2017-09-01T22:01:32.907Z,17.43
2017-09-01T22:04:01.827Z,15.70
2017-09-01T22:06:30.215Z,16.60
2017-09-01T22:08:58.607Z,18.23
2017-09-01T22:11:26.950Z,17.73
2017-09-01T22:13:55.287Z,17.30
2017-09-01T22:16:24.299Z,18.23
2017-09-01T22:18:52.630Z,19.90
2017-09-01T22:21:21.203Z,20.83
2017-09-01T22:23:49.665Z,21.67
2017-09-01T22:26:18.057Z,22.60
2017-09-01T22:28:46.415Z,24.10
2017-09-01T22:31:15.248Z,23.13
2017-09-01T22:33:44.733Z,22.50
2017-09-01T22:36:14.014Z,26.10
2017-09-01T22:38:42.475Z,26.67
2017-09-01T22:41:10.824Z,28.63
2017-09-01T22:43:39.259Z,25.93
2017-09-01T22:46:07.607Z,25.97
2017-09-01T22:48:35.945Z,24.73
2017-09-01T22:51:04.421Z,24.53
2017-09-01T22:53:32.767Z,24.87
2017-09-01T22:56:01.211Z,24.20
2017-09-01T22:58:29.558Z,25.93
2017-09-01T23:00:57.996Z,26.60
2017-09-01T23:03:26.423Z,25.20
2017-09-01T23:05:54.769Z,23.03
2017-09-01T23:08:23.178Z,24.13
2017-09-01T23:10:51.555Z,23.27
2017-09-01T23:13:19.906Z,24.20
2017-09-01T23:15:48.341Z,23.73
2017-09-01T23:18:16.714Z,22.30
2017-09-01T23:20:45.126Z,23.30
2017-09-01T23:23:13.514Z,24.67
2017-09-01T23:25:41.919Z,26.10
2017-09-01T23:28:10.258Z,25.00
2017-09-01T23:30:38.694Z,24.30
2017-09-01T23:33:07.046Z,26.50
2017-09-01T23:35:35.473Z,23.27
2017-09-01T23:38:03.809Z,25.97
2017-09-01T23:40:32.167Z,26.53
2017-09-01T23:43:00.551Z,26.77
2017-09-01T23:45:28.899Z,25.00
2017-09-01T23:47:57.257Z,26.20
2017-09-01T23:50:25.715Z,25.10
2017-09-01T23:52:54.114Z,25.50
2017-09-01T23:55:22.470Z,27.60
2017-09-01T23:57:50.895Z,28.07
